Terminal Aerodrome Forecast
Issued by NWS

Current Version | Previous Version | Text Only | Print | Product List | Glossary On
Versions: 1 2 3 4 5 6 7 8 9 10 11 12 13 14 15 16 17 18 19 20
000
FTUS46 KLOX 130541
TAFOXR
TAF
KOXR 130541Z 1306/1406 VRB03KT 3SM FU SKC
     FM131300 06008KT 5SM FU SKC
     FM132100 28008KT 4SM FU SKC
     FM140300 VRB03KT 6SM FU SKC=

USA.gov is the U.S. government's official web portal to all federal, state and local government web resources and services.